createdAt,value
2018-11-11T00:00:43.666Z,99882.97
2018-11-11T00:03:11.122Z,99877.80
2018-11-11T00:05:38.452Z,99875.55
2018-11-11T00:08:05.792Z,99879.19
2018-11-11T00:10:33.199Z,99877.84
2018-11-11T00:13:01.595Z,99883.88
2018-11-11T00:15:28.906Z,99893.23
2018-11-11T00:17:56.385Z,99896.42
2018-11-11T00:20:23.814Z,99888.07
2018-11-11T00:22:51.155Z,99891.41
2018-11-11T00:25:18.507Z,99893.59
2018-11-11T00:27:45.953Z,99891.06
2018-11-11T00:30:15.454Z,99890.21
2018-11-11T00:32:42.915Z,99890.45
2018-11-11T00:35:10.614Z,99895.89
2018-11-11T00:37:38.289Z,99894.08
2018-11-11T00:40:05.888Z,99892.67
2018-11-11T00:42:33.343Z,99885.78
2018-11-11T00:45:00.857Z,99879.11
2018-11-11T00:47:28.243Z,99882.75
2018-11-11T00:49:55.649Z,99883.90
2018-11-11T00:52:23.055Z,99891.16
2018-11-11T00:54:50.461Z,99892.27
2018-11-11T00:57:18.357Z,99895.79
2018-11-11T00:59:45.857Z,99892.23
2018-11-11T01:02:13.197Z,99894.80
2018-11-11T01:04:40.808Z,99896.84
2018-11-11T01:07:08.748Z,99897.56
2018-11-11T01:09:36.117Z,99900.73
2018-11-11T01:12:03.572Z,99903.39
2018-11-11T01:14:30.961Z,99899.70
2018-11-11T01:16:58.305Z,99901.60
2018-11-11T01:19:25.662Z,99899.91
2018-11-11T01:21:53.994Z,99896.03
2018-11-11T01:24:21.359Z,99895.64
2018-11-11T01:26:48.850Z,99893.09
2018-11-11T01:29:16.408Z,99891.03
2018-11-11T01:31:43.876Z,99887.19
2018-11-11T01:34:11.176Z,99884.46
2018-11-11T01:36:38.508Z,99875.27
2018-11-11T01:39:06.909Z,99878.32
2018-11-11T01:41:34.267Z,99875.55
2018-11-11T01:44:01.658Z,99875.05
2018-11-11T01:46:29.113Z,99874.19
2018-11-11T01:48:56.664Z,99875.01
2018-11-11T01:51:24.233Z,99875.48
2018-11-11T01:53:51.664Z,99872.35
2018-11-11T01:56:20.051Z,99875.73
2018-11-11T01:58:47.421Z,99870.13
2018-11-11T02:01:14.860Z,99869.95
2018-11-11T02:03:42.243Z,99864.27
2018-11-11T02:06:09.773Z,99868.26
2018-11-11T02:08:37.237Z,99856.69
2018-11-11T02:11:04.653Z,99859.02
2018-11-11T02:13:32.122Z,99857.83
2018-11-11T02:15:59.487Z,99858.61
2018-11-11T02:18:26.889Z,99856.38
2018-11-11T02:20:54.235Z,99857.05
2018-11-11T02:23:21.815Z,99861.45
2018-11-11T02:25:49.157Z,99874.00
2018-11-11T02:28:16.557Z,99867.90
2018-11-11T02:30:44.042Z,99868.47
2018-11-11T02:33:11.464Z,99871.70
2018-11-11T02:35:38.813Z,99873.28
2018-11-11T02:38:06.150Z,99875.23
2018-11-11T02:40:33.638Z,99880.60
2018-11-11T02:43:01.032Z,99872.56
2018-11-11T02:45:28.416Z,99880.58
2018-11-11T02:47:55.838Z,99873.22
2018-11-11T02:50:23.284Z,99882.48
2018-11-11T02:52:50.666Z,99885.44
2018-11-11T02:55:18.338Z,99876.97
2018-11-11T02:57:46.837Z,99875.01
2018-11-11T03:00:16.943Z,99867.32
2018-11-11T03:02:44.912Z,99860.88
2018-11-11T03:05:13.487Z,99854.41
2018-11-11T03:07:40.883Z,99841.13
2018-11-11T03:10:09.549Z,99819.65
2018-11-11T03:12:37.348Z,99816.80
2018-11-11T03:15:05.349Z,99826.83
2018-11-11T03:17:32.704Z,99856.86
2018-11-11T03:20:00.054Z,99880.58
2018-11-11T03:22:27.511Z,99871.20
2018-11-11T03:24:54.991Z,99884.78
2018-11-11T03:27:22.337Z,99880.83
2018-11-11T03:29:49.716Z,99892.62
2018-11-11T03:32:17.113Z,99890.96
2018-11-11T03:34:44.490Z,99899.38
2018-11-11T03:37:11.984Z,99895.92
2018-11-11T03:39:39.401Z,99918.64
2018-11-11T03:42:06.817Z,99916.27
2018-11-11T03:44:34.228Z,99920.85
2018-11-11T03:47:01.725Z,99926.98
2018-11-11T03:49:29.062Z,99927.03
2018-11-11T03:51:56.450Z,99924.26
2018-11-11T03:54:23.795Z,99922.05
2018-11-11T03:56:51.252Z,99926.64
2018-11-11T03:59:18.681Z,99926.38
2018-11-11T04:01:46.044Z,99924.75
2018-11-11T04:04:13.433Z,99922.72
2018-11-11T04:06:40.785Z,99931.98
2018-11-11T04:09:10.167Z,99918.71
2018-11-11T04:11:37.856Z,99915.75
2018-11-11T04:14:05.299Z,99918.31
2018-11-11T04:16:32.757Z,99904.77
2018-11-11T04:19:00.390Z,99915.70
2018-11-11T04:21:28.522Z,99908.18
2018-11-11T04:23:55.914Z,99918.75
2018-11-11T04:26:23.378Z,99931.94
2018-11-11T04:28:50.823Z,99929.58
2018-11-11T04:31:18.244Z,99936.72
2018-11-11T04:33:45.670Z,99934.68
2018-11-11T04:36:12.998Z,99923.31
2018-11-11T04:38:40.486Z,99922.63
2018-11-11T04:41:07.788Z,99919.09
2018-11-11T04:43:35.178Z,99930.66
2018-11-11T04:46:02.675Z,99930.86
2018-11-11T04:48:30.242Z,99926.16
2018-11-11T04:50:57.578Z,99922.80
2018-11-11T04:53:24.975Z,99914.74
2018-11-11T04:55:52.426Z,99913.45
2018-11-11T04:58:19.865Z,99923.87
2018-11-11T05:00:47.284Z,99921.36
2018-11-11T05:03:14.755Z,99919.88
2018-11-11T05:05:42.216Z,99923.66
2018-11-11T05:08:09.667Z,99927.95
2018-11-11T05:10:37.226Z,99920.79
2018-11-11T05:13:04.821Z,99912.41
2018-11-11T05:15:32.273Z,99921.15
2018-11-11T05:17:59.733Z,99915.59
2018-11-11T05:20:27.191Z,99911.55
2018-11-11T05:22:54.544Z,99917.45
2018-11-11T05:25:22.060Z,99915.11
2018-11-11T05:27:49.406Z,99919.77
2018-11-11T05:30:16.902Z,99923.78
2018-11-11T05:32:44.274Z,99927.92
2018-11-11T05:35:12.227Z,99924.98
2018-11-11T05:37:40.413Z,99926.86
2018-11-11T05:40:08.790Z,99929.67
2018-11-11T05:42:36.144Z,99935.71
2018-11-11T05:45:04.582Z,99929.26
2018-11-11T05:47:32.437Z,99924.67
2018-11-11T05:49:59.780Z,99929.63
2018-11-11T05:52:27.329Z,99923.16
2018-11-11T05:54:54.760Z,99928.73
2018-11-11T05:57:22.179Z,99937.48
2018-11-11T05:59:49.502Z,99950.45
2018-11-11T06:02:16.996Z,99952.05
2018-11-11T06:04:44.357Z,99957.47
2018-11-11T06:07:11.815Z,99952.37
2018-11-11T06:09:39.320Z,99943.98
2018-11-11T06:12:06.766Z,99947.06
2018-11-11T06:14:34.256Z,99945.04
2018-11-11T06:17:01.639Z,99946.89
2018-11-11T06:19:29.088Z,99956.66
2018-11-11T06:21:57.457Z,99964.09
2018-11-11T06:24:24.821Z,99967.08
2018-11-11T06:26:52.325Z,99956.37
2018-11-11T06:29:19.769Z,99960.02
2018-11-11T06:31:48.070Z,99960.95
2018-11-11T06:34:16.196Z,99957.86
2018-11-11T06:36:43.608Z,99958.16
2018-11-11T06:39:12.064Z,99950.36
2018-11-11T06:41:39.985Z,99945.68
2018-11-11T06:44:07.815Z,99948.50
2018-11-11T06:46:35.417Z,99949.26
2018-11-11T06:49:03.323Z,99939.91
2018-11-11T06:51:30.666Z,99941.32
2018-11-11T06:53:58.107Z,99943.17
2018-11-11T06:56:25.747Z,99939.45
2018-11-11T06:58:53.202Z,99942.70
2018-11-11T07:01:20.532Z,99941.53
2018-11-11T07:03:54.405Z,99945.42
2018-11-11T07:06:22.338Z,99935.45
2018-11-11T07:08:50.150Z,99953.53
2018-11-11T07:11:18.305Z,99943.75
2018-11-11T07:13:45.650Z,99945.20
2018-11-11T07:16:13.350Z,99949.70
2018-11-11T07:18:41.286Z,99950.73
2018-11-11T07:21:09.740Z,99952.22
2018-11-11T07:23:39.382Z,99955.53
2018-11-11T07:26:06.704Z,99961.16
2018-11-11T07:28:34.558Z,99967.33
2018-11-11T07:31:01.934Z,99980.23
2018-11-11T07:33:29.665Z,99984.59
2018-11-11T07:35:57.595Z,99985.69
2018-11-11T07:38:24.937Z,99993.15
2018-11-11T07:40:52.583Z,99994.45
2018-11-11T07:43:20.002Z,100000.38
2018-11-11T07:45:48.036Z,100001.34
2018-11-11T07:48:15.684Z,100007.30
2018-11-11T07:50:43.342Z,100007.30
2018-11-11T07:53:10.678Z,100002.55
2018-11-11T07:55:38.221Z,100003.23
2018-11-11T07:58:05.888Z,100008.67
2018-11-11T08:00:33.378Z,100026.38
2018-11-11T08:03:00.821Z,100024.50
2018-11-11T08:05:28.173Z,100016.10
2018-11-11T08:07:55.640Z,100015.64
2018-11-11T08:10:34.459Z,100020.37
2018-11-11T08:13:01.943Z,100010.45
2018-11-11T08:15:29.455Z,100011.94
2018-11-11T08:17:57.410Z,100014.79
2018-11-11T08:20:25.008Z,100019.83
2018-11-11T08:22:52.523Z,100028.12
2018-11-11T08:25:20.412Z,100027.05
2018-11-11T08:27:47.831Z,100022.72
2018-11-11T08:30:15.253Z,100026.42
2018-11-11T08:32:42.665Z,100032.89
2018-11-11T08:35:10.978Z,100032.91
2018-11-11T08:37:39.178Z,100043.63
2018-11-11T08:40:07.331Z,100049.45
2018-11-11T08:42:34.919Z,100047.14
2018-11-11T08:45:02.546Z,100052.89
2018-11-11T08:47:31.219Z,100055.06
2018-11-11T08:49:58.628Z,100061.38
2018-11-11T08:52:25.996Z,100060.44
2018-11-11T08:54:53.588Z,100057.99
2018-11-11T08:57:21.228Z,100067.17
2018-11-11T08:59:48.820Z,100072.19
2018-11-11T09:02:16.344Z,100077.79
2018-11-11T09:04:43.818Z,100077.88
2018-11-11T09:07:11.226Z,100077.27
2018-11-11T09:09:38.686Z,100079.73
2018-11-11T09:12:06.175Z,100082.28
2018-11-11T09:14:33.619Z,100074.05
2018-11-11T09:17:01.131Z,100087.72
2018-11-11T09:19:28.874Z,100081.67
2018-11-11T09:21:56.326Z,100082.45
2018-11-11T09:24:23.842Z,100080.18
2018-11-11T09:26:51.203Z,100079.84
2018-11-11T09:29:18.610Z,100079.98
2018-11-11T09:31:46.038Z,100069.78
2018-11-11T09:34:13.718Z,100076.03
2018-11-11T09:36:41.038Z,100091.23
2018-11-11T09:39:10.182Z,100088.84
2018-11-11T09:41:37.763Z,100091.84
2018-11-11T09:44:06.041Z,100094.00
2018-11-11T09:46:34.353Z,100098.97
2018-11-11T09:49:01.803Z,100099.05
2018-11-11T09:51:29.207Z,100103.82
2018-11-11T09:53:56.603Z,100104.19
2018-11-11T09:56:24.563Z,100102.51
2018-11-11T09:58:51.951Z,100096.16
2018-11-11T10:01:19.461Z,100089.81
2018-11-11T10:03:53.236Z,100094.45
2018-11-11T10:07:26.398Z,100086.95
2018-11-11T10:09:59.558Z,100091.56
2018-11-11T10:12:34.993Z,100087.64
2018-11-11T10:15:08.100Z,100082.32
2018-11-11T10:17:40.068Z,100094.34
2018-11-11T10:20:19.742Z,100091.28
2018-11-11T10:22:55.595Z,100093.67
2018-11-11T10:27:31.592Z,100094.38
2018-11-11T10:30:09.976Z,100081.24
2018-11-11T10:33:09.239Z,100092.81
2018-11-11T10:36:17.108Z,100105.28
2018-11-11T10:38:52.000Z,100105.05
2018-11-11T10:41:29.856Z,100105.61
2018-11-11T10:44:00.538Z,100109.08
2018-11-11T10:46:40.172Z,100108.02
2018-11-11T10:49:09.049Z,100106.48
2018-11-11T10:51:36.736Z,100108.13
2018-11-11T10:54:04.602Z,100106.88
2018-11-11T10:56:32.048Z,100112.39
2018-11-11T10:58:59.421Z,100109.60
2018-11-11T11:01:35.845Z,100103.48
2018-11-11T11:04:03.774Z,100097.58
2018-11-11T11:06:37.214Z,100106.35
2018-11-11T11:09:09.791Z,100086.20
2018-11-11T11:11:38.005Z,100088.37
2018-11-11T11:14:05.357Z,100079.78
2018-11-11T11:16:32.680Z,100097.83
2018-11-11T11:19:00.140Z,100072.53
2018-11-11T11:21:27.501Z,100067.42
2018-11-11T11:23:54.880Z,100081.80
2018-11-11T11:26:22.266Z,100066.01
2018-11-11T11:28:49.670Z,100064.16
2018-11-11T11:31:17.105Z,100080.80
2018-11-11T11:33:44.431Z,100075.78
2018-11-11T11:36:11.933Z,100077.30
2018-11-11T11:38:39.285Z,100056.52
2018-11-11T11:41:07.686Z,100057.14
2018-11-11T11:43:35.571Z,100077.11
2018-11-11T11:46:03.052Z,100054.35
2018-11-11T11:48:30.458Z,100055.88
2018-11-11T11:50:57.830Z,100056.18
2018-11-11T11:53:26.103Z,100047.42
2018-11-11T11:55:53.637Z,100056.80
2018-11-11T11:58:23.841Z,100059.41
2018-11-11T12:00:51.258Z,100048.16
2018-11-11T12:03:18.684Z,100051.34
2018-11-11T12:05:46.908Z,100040.45
2018-11-11T12:08:14.565Z,100048.37
2018-11-11T12:10:42.528Z,100049.35
2018-11-11T12:13:11.033Z,100050.08
2018-11-11T12:15:43.845Z,100047.05
2018-11-11T12:18:11.332Z,100051.17
2018-11-11T12:20:39.300Z,100069.22
2018-11-11T12:23:07.107Z,100067.97
2018-11-11T12:25:35.222Z,100081.80
2018-11-11T12:28:02.918Z,100084.75
2018-11-11T12:30:30.399Z,100088.37
2018-11-11T12:32:57.752Z,100087.76
2018-11-11T12:35:25.279Z,100097.97
2018-11-11T12:37:52.869Z,100113.14
2018-11-11T12:40:20.335Z,100115.44
2018-11-11T12:42:47.765Z,100117.64
2018-11-11T12:45:15.287Z,100112.05
2018-11-11T12:47:42.778Z,100128.14
2018-11-11T12:50:11.339Z,100137.01
2018-11-11T12:52:39.179Z,100140.12
2018-11-11T12:55:07.500Z,100139.44
2018-11-11T12:57:34.917Z,100134.84
2018-11-11T13:00:02.476Z,100143.34
2018-11-11T13:02:30.006Z,100152.74
2018-11-11T13:04:57.630Z,100149.61
2018-11-11T13:07:25.695Z,100150.38
2018-11-11T13:09:53.044Z,100158.86
2018-11-11T13:12:23.265Z,100155.70
2018-11-11T13:14:51.420Z,100155.09
2018-11-11T13:17:18.862Z,100168.08
2018-11-11T13:19:47.743Z,100159.81
2018-11-11T13:22:15.335Z,100158.23
2018-11-11T13:24:42.654Z,100166.02
2018-11-11T13:27:10.144Z,100164.97
2018-11-11T13:29:37.798Z,100154.59
2018-11-11T13:32:05.503Z,100151.59
2018-11-11T13:34:32.856Z,100151.10
2018-11-11T13:37:00.304Z,100156.52
2018-11-11T13:39:29.020Z,100143.92
2018-11-11T13:41:56.444Z,100145.02
2018-11-11T13:44:23.918Z,100148.80
2018-11-11T13:46:52.055Z,100148.19
2018-11-11T13:49:19.348Z,100146.72
2018-11-11T13:51:46.915Z,100146.73
2018-11-11T13:54:15.219Z,100143.95
2018-11-11T13:56:42.663Z,100142.81
2018-11-11T13:59:10.167Z,100153.25
2018-11-11T14:01:38.348Z,100150.36
2018-11-11T14:04:05.821Z,100161.54
2018-11-11T14:06:33.231Z,100164.61
2018-11-11T14:09:00.590Z,100162.23
2018-11-11T14:11:28.059Z,100164.06
2018-11-11T14:13:55.477Z,100164.27
2018-11-11T14:16:22.964Z,100164.29
2018-11-11T14:18:50.534Z,100157.34
2018-11-11T14:21:17.915Z,100160.67
2018-11-11T14:23:46.235Z,100165.33
2018-11-11T14:26:13.829Z,100160.17
2018-11-11T14:28:41.280Z,100171.74
2018-11-11T14:31:08.666Z,100181.95
2018-11-11T14:33:36.079Z,100175.49
2018-11-11T14:36:03.502Z,100186.41
2018-11-11T14:38:31.057Z,100190.21
2018-11-11T14:40:58.473Z,100187.64
2018-11-11T14:43:26.120Z,100190.36
2018-11-11T14:45:53.921Z,100190.32
2018-11-11T14:48:21.360Z,100182.08
2018-11-11T14:50:48.848Z,100198.53
2018-11-11T14:53:16.502Z,100200.20
2018-11-11T14:55:44.033Z,100196.59
2018-11-11T14:58:11.457Z,100191.10
2018-11-11T15:00:38.955Z,100200.95
2018-11-11T15:03:12.520Z,100190.43
2018-11-11T15:05:40.584Z,100201.34
2018-11-11T15:08:08.356Z,100202.89
2018-11-11T15:10:35.845Z,100205.12
2018-11-11T15:13:04.244Z,100208.41
2018-11-11T15:15:31.636Z,100206.35
2018-11-11T15:18:00.163Z,100200.41
2018-11-11T15:20:27.649Z,100194.74
2018-11-11T15:22:54.984Z,100204.88
2018-11-11T15:25:23.759Z,100192.09
2018-11-11T15:27:51.408Z,100196.45
2018-11-11T15:30:23.244Z,100200.20
2018-11-11T15:32:51.181Z,100200.11
2018-11-11T15:35:18.572Z,100203.11
2018-11-11T15:37:45.970Z,100202.78
2018-11-11T15:40:17.430Z,100204.45
2018-11-11T15:42:44.848Z,100213.39
2018-11-11T15:45:18.230Z,100212.19
2018-11-11T15:47:45.692Z,100211.64
2018-11-11T15:50:16.835Z,100206.42
2018-11-11T15:52:45.975Z,100207.03
2018-11-11T15:55:14.089Z,100197.38
2018-11-11T15:57:41.580Z,100199.87
2018-11-11T16:00:17.066Z,100197.48
2018-11-11T16:02:44.945Z,100193.70
2018-11-11T16:05:12.960Z,100194.43
2018-11-11T16:07:41.190Z,100200.65
2018-11-11T16:10:10.773Z,100197.98
2018-11-11T16:12:38.199Z,100199.61
2018-11-11T16:15:08.630Z,100200.96
2018-11-11T16:17:35.990Z,100195.31
2018-11-11T16:20:03.771Z,100208.21
2018-11-11T16:22:31.184Z,100214.64
2018-11-11T16:24:58.780Z,100227.75
2018-11-11T16:27:26.224Z,100220.10
2018-11-11T16:29:53.647Z,100221.58
2018-11-11T16:32:23.715Z,100225.84
2018-11-11T16:34:51.194Z,100232.02
2018-11-11T16:37:18.596Z,100239.61
2018-11-11T16:39:46.016Z,100234.63
2018-11-11T16:42:13.452Z,100245.31
2018-11-11T16:44:40.889Z,100252.58
2018-11-11T16:47:08.912Z,100266.52
2018-11-11T16:49:36.350Z,100270.00
2018-11-11T16:52:03.799Z,100266.52
2018-11-11T16:54:31.327Z,100269.08
2018-11-11T16:56:58.880Z,100272.30
2018-11-11T16:59:26.918Z,100285.36
2018-11-11T17:01:54.349Z,100277.84
2018-11-11T17:04:22.892Z,100285.68
2018-11-11T17:06:50.306Z,100286.16
2018-11-11T17:09:17.954Z,100291.01
2018-11-11T17:11:45.383Z,100287.77
2018-11-11T17:14:12.823Z,100282.22
2018-11-11T17:16:40.215Z,100288.95
2018-11-11T17:19:07.712Z,100287.38
2018-11-11T17:21:35.322Z,100287.98
2018-11-11T17:24:03.305Z,100292.19
2018-11-11T17:26:30.897Z,100291.89
2018-11-11T17:28:58.495Z,100293.83
2018-11-11T17:31:25.861Z,100300.00
2018-11-11T17:33:53.337Z,100298.48
2018-11-11T17:36:20.737Z,100303.66
2018-11-11T17:38:48.147Z,100305.20
2018-11-11T17:41:15.651Z,100297.52
2018-11-11T17:43:43.161Z,100297.50
2018-11-11T17:46:10.649Z,100289.27
2018-11-11T17:48:38.427Z,100287.83
2018-11-11T17:51:05.972Z,100288.34
2018-11-11T17:53:33.478Z,100312.38
2018-11-11T17:56:01.105Z,100311.59
2018-11-11T17:58:28.476Z,100317.12
2018-11-11T18:00:55.896Z,100303.45
2018-11-11T18:03:23.324Z,100310.11
2018-11-11T18:05:50.674Z,100306.24
2018-11-11T18:08:18.108Z,100310.02
2018-11-11T18:10:46.121Z,100316.62
2018-11-11T18:13:13.552Z,100309.17
2018-11-11T18:15:44.411Z,100314.92
2018-11-11T18:18:12.053Z,100315.19
2018-11-11T18:20:39.593Z,100311.87
2018-11-11T18:23:07.539Z,100308.53
2018-11-11T18:25:35.559Z,100309.45
2018-11-11T18:28:03.092Z,100305.60
2018-11-11T18:30:31.977Z,100295.81
2018-11-11T18:32:59.426Z,100295.59
2018-11-11T18:35:27.104Z,100297.88
2018-11-11T18:37:54.653Z,100303.73
2018-11-11T18:40:23.599Z,100300.83
2018-11-11T18:42:50.957Z,100295.85
2018-11-11T18:45:20.645Z,100297.50
2018-11-11T18:47:48.885Z,100292.11
2018-11-11T18:50:20.495Z,100290.42
2018-11-11T18:52:48.204Z,100289.14
2018-11-11T18:55:15.786Z,100298.02
2018-11-11T18:57:43.724Z,100287.62
2018-11-11T19:00:13.752Z,100282.55
2018-11-11T19:02:41.768Z,100287.20
2018-11-11T19:05:10.743Z,100290.28
2018-11-11T19:07:38.833Z,100282.19
2018-11-11T19:10:09.179Z,100289.22
2018-11-11T19:12:36.564Z,100284.55
2018-11-11T19:15:04.769Z,100291.36
2018-11-11T19:17:32.339Z,100294.47
2018-11-11T19:19:59.719Z,100308.75
2018-11-11T19:22:27.176Z,100322.35
2018-11-11T19:24:54.626Z,100332.38
2018-11-11T19:27:21.910Z,100320.77
2018-11-11T19:29:49.381Z,100326.09
2018-11-11T19:32:16.839Z,100320.78
2018-11-11T19:34:44.257Z,100326.40
2018-11-11T19:37:11.766Z,100330.16
2018-11-11T19:39:39.232Z,100330.91
2018-11-11T19:42:06.710Z,100336.27
2018-11-11T19:44:34.108Z,100341.05
2018-11-11T19:47:01.535Z,100342.80
2018-11-11T19:49:30.040Z,100343.91
2018-11-11T19:51:57.760Z,100335.12
2018-11-11T19:54:25.277Z,100335.79
2018-11-11T19:56:52.858Z,100334.91
2018-11-11T19:59:20.769Z,100335.45
2018-11-11T20:01:48.931Z,100325.77
2018-11-11T20:04:16.339Z,100325.33
2018-11-11T20:06:43.769Z,100336.30
2018-11-11T20:09:13.002Z,100343.55
2018-11-11T20:11:40.544Z,100341.44
2018-11-11T20:14:08.362Z,100344.70
2018-11-11T20:16:36.417Z,100359.91
2018-11-11T20:19:04.148Z,100365.96
2018-11-11T20:21:32.219Z,100368.39
2018-11-11T20:24:00.624Z,100357.08
2018-11-11T20:26:28.174Z,100370.64
2018-11-11T20:28:55.629Z,100370.33
2018-11-11T20:31:23.318Z,100364.06
2018-11-11T20:33:50.722Z,100377.11
2018-11-11T20:36:18.731Z,100378.79
2018-11-11T20:38:46.402Z,100370.43
2018-11-11T20:41:13.884Z,100369.72
2018-11-11T20:43:41.535Z,100367.70
2018-11-11T20:46:08.951Z,100367.23
2018-11-11T20:48:36.311Z,100379.84
2018-11-11T20:51:04.003Z,100374.44
2018-11-11T20:53:31.476Z,100366.23
2018-11-11T20:55:59.162Z,100360.84
2018-11-11T20:58:26.761Z,100356.64
2018-11-11T21:00:54.262Z,100360.50
2018-11-11T21:03:21.933Z,100373.91
2018-11-11T21:05:49.421Z,100392.37
2018-11-11T21:08:16.879Z,100407.91
2018-11-11T21:10:45.349Z,100420.69
2018-11-11T21:13:12.705Z,100436.05
2018-11-11T21:15:41.049Z,100442.72
2018-11-11T21:18:09.149Z,100456.08
2018-11-11T21:20:36.604Z,100456.68
2018-11-11T21:23:04.191Z,100441.61
2018-11-11T21:25:31.879Z,100454.41
2018-11-11T21:27:59.323Z,100453.41
2018-11-11T21:30:28.964Z,100456.16
2018-11-11T21:32:56.660Z,100464.64
2018-11-11T21:35:24.018Z,100476.19
2018-11-11T21:37:51.668Z,100467.30
2018-11-11T21:40:21.177Z,100469.87
2018-11-11T21:42:49.163Z,100463.38
2018-11-11T21:45:17.779Z,100472.02
2018-11-11T21:47:45.499Z,100473.63
2018-11-11T21:50:14.390Z,100480.73
2018-11-11T21:52:43.328Z,100497.02
2018-11-11T21:55:10.779Z,100496.22
2018-11-11T21:57:38.351Z,100498.71
2018-11-11T22:00:08.593Z,100498.73
2018-11-11T22:02:36.098Z,100509.54
2018-11-11T22:05:03.814Z,100501.54
2018-11-11T22:07:31.218Z,100490.72
2018-11-11T22:09:58.781Z,100502.30
2018-11-11T22:12:26.079Z,100512.21
2018-11-11T22:14:53.476Z,100513.34
2018-11-11T22:17:20.904Z,100523.77
2018-11-11T22:19:48.257Z,100536.42
2018-11-11T22:22:15.675Z,100532.88
2018-11-11T22:24:43.100Z,100554.69
2018-11-11T22:27:10.554Z,100554.70
2018-11-11T22:29:38.033Z,100552.81
2018-11-11T22:32:10.241Z,100551.12
2018-11-11T22:34:37.924Z,100550.08
2018-11-11T22:37:06.453Z,100546.17
2018-11-11T22:39:33.900Z,100554.47
2018-11-11T22:42:01.233Z,100535.94
2018-11-11T22:44:28.621Z,100528.14
2018-11-11T22:46:55.943Z,100554.34
2018-11-11T22:49:23.305Z,100551.95
2018-11-11T22:51:50.631Z,100545.02
2018-11-11T22:54:18.093Z,100526.42
2018-11-11T22:56:45.561Z,100525.11
2018-11-11T22:59:12.899Z,100541.43
2018-11-11T23:01:40.291Z,100537.53
2018-11-11T23:04:07.691Z,100546.17
2018-11-11T23:06:35.297Z,100550.16
2018-11-11T23:09:03.237Z,100557.63
2018-11-11T23:11:30.637Z,100554.34
2018-11-11T23:13:57.999Z,100559.54
2018-11-11T23:16:25.561Z,100556.74
2018-11-11T23:18:52.902Z,100556.95
2018-11-11T23:21:20.289Z,100544.84
2018-11-11T23:23:47.873Z,100541.98
2018-11-11T23:26:15.266Z,100535.17
2018-11-11T23:28:42.726Z,100548.55
2018-11-11T23:31:10.132Z,100562.32
2018-11-11T23:33:37.554Z,100587.36
2018-11-11T23:36:05.390Z,100582.61
2018-11-11T23:38:32.899Z,100572.03
2018-11-11T23:41:00.371Z,100564.59
2018-11-11T23:43:27.708Z,100566.11
2018-11-11T23:45:55.199Z,100563.63
2018-11-11T23:48:22.623Z,100567.73
2018-11-11T23:50:49.991Z,100572.36
2018-11-11T23:53:17.952Z,100575.96
2018-11-11T23:55:45.289Z,100579.20
2018-11-11T23:58:12.678Z,100574.41
